sensor_id;sensor_type;location;lat;lon;timestamp;pressure;altitude;pressure_sealevel;temperature;humidity
21588;BME280;10956;48.878;13.316;2024-02-04T00:01:17;94887.59;;;5.44;100.00
21588;BME280;10956;48.878;13.316;2024-02-04T00:03:42;94882.78;;;5.41;100.00
21588;BME280;10956;48.878;13.316;2024-02-04T00:06:08;94876.53;;;5.42;100.00
21588;BME280;10956;48.878;13.316;2024-02-04T00:08:33;94873.94;;;5.42;100.00
21588;BME280;10956;48.878;13.316;2024-02-04T00:10:59;94858.69;;;5.39;100.00
21588;BME280;10956;48.878;13.316;2024-02-04T00:13:24;94861.72;;;5.36;100.00
21588;BME280;10956;48.878;13.316;2024-02-04T00:15:49;94863.97;;;5.33;100.00
21588;BME280;10956;48.878;13.316;2024-02-04T00:18:15;94874.81;;;5.36;100.00
21588;BME280;10956;48.878;13.316;2024-02-04T00:20:40;94877.41;;;5.36;100.00
21588;BME280;10956;48.878;13.316;2024-02-04T00:23:06;94880.47;;;5.33;100.00
21588;BME280;10956;48.878;13.316;2024-02-04T00:25:31;94881.19;;;5.40;100.00
21588;BME280;10956;48.878;13.316;2024-02-04T00:27:57;94858.69;;;5.39;100.00
21588;BME280;10956;48.878;13.316;2024-02-04T00:30:22;94867.09;;;5.41;100.00
21588;BME280;10956;48.878;13.316;2024-02-04T00:32:47;94856.06;;;5.39;100.00
21588;BME280;10956;48.878;13.316;2024-02-04T00:35:13;94854.47;;;5.38;100.00
21588;BME280;10956;48.878;13.316;2024-02-04T00:37:38;94853.88;;;5.36;100.00
21588;BME280;10956;48.878;13.316;2024-02-04T00:40:04;94848.22;;;5.39;100.00
21588;BME280;10956;48.878;13.316;2024-02-04T00:42:30;94849.03;;;5.40;100.00
21588;BME280;10956;48.878;13.316;2024-02-04T00:44:55;94834.16;;;5.40;100.00
21588;BME280;10956;48.878;13.316;2024-02-04T00:47:21;94844.16;;;5.43;100.00
21588;BME280;10956;48.878;13.316;2024-02-04T00:49:46;94840.97;;;5.41;100.00
21588;BME280;10956;48.878;13.316;2024-02-04T00:52:12;94850.19;;;5.44;100.00
21588;BME280;10956;48.878;13.316;2024-02-04T00:54:37;94854.97;;;5.47;100.00
21588;BME280;10956;48.878;13.316;2024-02-04T00:57:03;94848.09;;;5.53;100.00
21588;BME280;10956;48.878;13.316;2024-02-04T00:59:28;94867.03;;;5.48;100.00
21588;BME280;10956;48.878;13.316;2024-02-04T01:01:53;94870.44;;;5.48;100.00
21588;BME280;10956;48.878;13.316;2024-02-04T01:04:20;94870.03;;;5.51;100.00
21588;BME280;10956;48.878;13.316;2024-02-04T01:06:48;94875.03;;;5.53;100.00
21588;BME280;10956;48.878;13.316;2024-02-04T01:09:13;94869.00;;;5.53;100.00
21588;BME280;10956;48.878;13.316;2024-02-04T01:11:39;94848.66;;;5.55;100.00
21588;BME280;10956;48.878;13.316;2024-02-04T01:14:05;94851.00;;;5.44;100.00
21588;BME280;10956;48.878;13.316;2024-02-04T01:16:31;94855.78;;;5.47;100.00
21588;BME280;10956;48.878;13.316;2024-02-04T01:18:56;94850.41;;;5.42;100.00
21588;BME280;10956;48.878;13.316;2024-02-04T01:21:21;94849.31;;;5.50;100.00
21588;BME280;10956;48.878;13.316;2024-02-04T01:23:47;94853.75;;;5.49;100.00
21588;BME280;10956;48.878;13.316;2024-02-04T01:26:12;94851.13;;;5.49;100.00
21588;BME280;10956;48.878;13.316;2024-02-04T01:28:38;94845.75;;;5.44;100.00
21588;BME280;10956;48.878;13.316;2024-02-04T01:31:04;94857.00;;;5.45;100.00
21588;BME280;10956;48.878;13.316;2024-02-04T01:33:29;94855.41;;;5.44;100.00
21588;BME280;10956;48.878;13.316;2024-02-04T01:35:54;94859.03;;;5.43;100.00
21588;BME280;10956;48.878;13.316;2024-02-04T01:38:20;94845.75;;;5.44;100.00
21588;BME280;10956;48.878;13.316;2024-02-04T01:40:45;94838.13;;;5.43;100.00
21588;BME280;10956;48.878;13.316;2024-02-04T01:43:11;94844.91;;;5.50;100.00
21588;BME280;10956;48.878;13.316;2024-02-04T01:45:37;94840.53;;;5.44;100.00
21588;BME280;10956;48.878;13.316;2024-02-04T01:48:03;94845.09;;;5.49;100.00
21588;BME280;10956;48.878;13.316;2024-02-04T01:50:29;94850.56;;;5.47;100.00
21588;BME280;10956;48.878;13.316;2024-02-04T01:52:54;94846.78;;;5.43;100.00
21588;BME280;10956;48.878;13.316;2024-02-04T01:55:20;94840.31;;;5.46;100.00
21588;BME280;10956;48.878;13.316;2024-02-04T01:57:47;94838.28;;;5.48;100.00
21588;BME280;10956;48.878;13.316;2024-02-04T02:00:14;94847.00;;;5.42;100.00
21588;BME280;10956;48.878;13.316;2024-02-04T02:02:40;94834.50;;;5.44;100.00
21588;BME280;10956;48.878;13.316;2024-02-04T02:05:07;94834.28;;;5.45;100.00
21588;BME280;10956;48.878;13.316;2024-02-04T02:07:33;94831.25;;;5.48;100.00
21588;BME280;10956;48.878;13.316;2024-02-04T02:09:58;94836.03;;;5.51;100.00
21588;BME280;10956;48.878;13.316;2024-02-04T02:12:26;94825.22;;;5.48;100.00
21588;BME280;10956;48.878;13.316;2024-02-04T02:14:57;94821.66;;;5.42;100.00
21588;BME280;10956;48.878;13.316;2024-02-04T02:17:41;94819.25;;;5.41;100.00
21588;BME280;10956;48.878;13.316;2024-02-04T02:20:19;94832.03;;;5.49;100.00
21588;BME280;10956;48.878;13.316;2024-02-04T02:23:17;94807.84;;;5.54;100.00
21588;BME280;10956;48.878;13.316;2024-02-04T02:25:46;94821.94;;;5.53;100.00
21588;BME280;10956;48.878;13.316;2024-02-04T02:28:11;94817.94;;;5.50;100.00
21588;BME280;10956;48.878;13.316;2024-02-04T02:30:37;94823.97;;;5.50;100.00
21588;BME280;10956;48.878;13.316;2024-02-04T02:33:03;94825.56;;;5.51;100.00
21588;BME280;10956;48.878;13.316;2024-02-04T02:35:29;94818.66;;;5.57;100.00
21588;BME280;10956;48.878;13.316;2024-02-04T02:38:25;94815.69;;;5.54;100.00
21588;BME280;10956;48.878;13.316;2024-02-04T02:40:54;94820.63;;;5.62;100.00
21588;BME280;10956;48.878;13.316;2024-02-04T02:43:23;94813.38;;;5.64;100.00
21588;BME280;10956;48.878;13.316;2024-02-04T02:45:49;94815.84;;;5.59;100.00
21588;BME280;10956;48.878;13.316;2024-02-04T02:48:15;94812.66;;;5.57;100.00
21588;BME280;10956;48.878;13.316;2024-02-04T02:50:41;94818.31;;;5.54;100.00
21588;BME280;10956;48.878;13.316;2024-02-04T02:53:06;94813.22;;;5.59;100.00
21588;BME280;10956;48.878;13.316;2024-02-04T02:55:32;94814.25;;;5.58;100.00
21588;BME280;10956;48.878;13.316;2024-02-04T02:57:57;94812.06;;;5.55;100.00
21588;BME280;10956;48.878;13.316;2024-02-04T03:00:22;94814.25;;;5.58;100.00
21588;BME280;10956;48.878;13.316;2024-02-04T03:02:48;94809.59;;;5.60;100.00
21588;BME280;10956;48.878;13.316;2024-02-04T03:05:17;94808.22;;;5.57;100.00
21588;BME280;10956;48.878;13.316;2024-02-04T03:07:43;94812.06;;;5.55;100.00
21588;BME280;10956;48.878;13.316;2024-02-04T03:10:09;94809.44;;;5.55;100.00
21588;BME280;10956;48.878;13.316;2024-02-04T03:12:34;94805.97;;;5.61;100.00
21588;BME280;10956;48.878;13.316;2024-02-04T03:15:00;94799.00;;;5.55;100.00
21588;BME280;10956;48.878;13.316;2024-02-04T03:17:25;94812.22;;;5.60;100.00
21588;BME280;10956;48.878;13.316;2024-02-04T03:19:51;94815.25;;;5.57;100.00
21588;BME280;10956;48.878;13.316;2024-02-04T03:22:20;94813.09;;;5.54;100.00
21588;BME280;10956;48.878;13.316;2024-02-04T03:24:47;94812.66;;;5.57;100.00
21588;BME280;10956;48.878;13.316;2024-02-04T03:27:12;94816.28;;;5.56;100.00
21588;BME280;10956;48.878;13.316;2024-02-04T03:29:38;94812.00;;;5.61;100.00
21588;BME280;10956;48.878;13.316;2024-02-04T03:32:04;94822.22;;;5.63;100.00
21588;BME280;10956;48.878;13.316;2024-02-04T03:34:29;94821.44;;;5.62;100.00
21588;BME280;10956;48.878;13.316;2024-02-04T03:36:54;94814.03;;;5.59;100.00
21588;BME280;10956;48.878;13.316;2024-02-04T03:39:20;94822.66;;;5.60;100.00
21588;BME280;10956;48.878;13.316;2024-02-04T03:41:45;94819.84;;;5.61;100.00
21588;BME280;10956;48.878;13.316;2024-02-04T03:44:11;94824.25;;;5.61;100.00
21588;BME280;10956;48.878;13.316;2024-02-04T03:46:36;94835.97;;;5.58;100.00
21588;BME280;10956;48.878;13.316;2024-02-04T03:49:05;94833.34;;;5.58;100.00
21588;BME280;10956;48.878;13.316;2024-02-04T03:51:31;94840.38;;;5.58;100.00
21588;BME280;10956;48.878;13.316;2024-02-04T03:53:56;94841.19;;;5.58;100.00
21588;BME280;10956;48.878;13.316;2024-02-04T03:56:21;94836.53;;;5.60;100.00
21588;BME280;10956;48.878;13.316;2024-02-04T03:58:47;94834.72;;;5.61;100.00
21588;BME280;10956;48.878;13.316;2024-02-04T04:01:13;94843.59;;;5.60;100.00
21588;BME280;10956;48.878;13.316;2024-02-04T04:03:44;94839.28;;;5.65;100.00
21588;BME280;10956;48.878;13.316;2024-02-04T04:06:10;94834.72;;;5.61;100.00
21588;BME280;10956;48.878;13.316;2024-02-04T04:08:36;94842.13;;;5.64;100.00
21588;BME280;10956;48.878;13.316;2024-02-04T04:11:01;94835.09;;;5.64;100.00
21588;BME280;10956;48.878;13.316;2024-02-04T04:13:27;94835.53;;;5.61;100.00
21588;BME280;10956;48.878;13.316;2024-02-04T04:15:53;94835.97;;;5.58;100.00
21588;BME280;10956;48.878;13.316;2024-02-04T04:18:18;94833.13;;;5.60;100.00
21588;BME280;10956;48.878;13.316;2024-02-04T04:20:44;94836.75;;;5.59;100.00
21588;BME280;10956;48.878;13.316;2024-02-04T04:23:09;94821.88;;;5.59;100.00
21588;BME280;10956;48.878;13.316;2024-02-04T04:25:34;94829.94;;;5.58;100.00
21588;BME280;10956;48.878;13.316;2024-02-04T04:28:00;94825.13;;;5.55;100.00
21588;BME280;10956;48.878;13.316;2024-02-04T04:30:25;94823.53;;;5.54;100.00
21588;BME280;10956;48.878;13.316;2024-02-04T04:32:51;94825.13;;;5.55;100.00
21588;BME280;10956;48.878;13.316;2024-02-04T04:35:16;94831.09;;;5.62;100.00
21588;BME280;10956;48.878;13.316;2024-02-04T04:37:42;94836.31;;;5.62;100.00
21588;BME280;10956;48.878;13.316;2024-02-04T04:40:07;94823.81;;;5.64;100.00
21588;BME280;10956;48.878;13.316;2024-02-04T04:42:33;94830.72;;;5.58;100.00
21588;BME280;10956;48.878;13.316;2024-02-04T04:44:58;94844.59;;;5.59;100.00
21588;BME280;10956;48.878;13.316;2024-02-04T04:47:24;94839.94;;;5.61;100.00
21588;BME280;10956;48.878;13.316;2024-02-04T04:49:49;94834.28;;;5.64;100.00
21588;BME280;10956;48.878;13.316;2024-02-04T04:52:16;94836.31;;;5.62;100.00
21588;BME280;10956;48.878;13.316;2024-02-04T04:54:42;94842.00;;;5.59;100.00
21588;BME280;10956;48.878;13.316;2024-02-04T04:57:07;94845.97;;;5.61;100.00
21588;BME280;10956;48.878;13.316;2024-02-04T04:59:33;94842.00;;;5.59;100.00
21588;BME280;10956;48.878;13.316;2024-02-04T05:01:58;94832.31;;;5.59;100.00
21588;BME280;10956;48.878;13.316;2024-02-04T05:04:23;94823.09;;;5.57;100.00
21588;BME280;10956;48.878;13.316;2024-02-04T05:06:51;94825.72;;;5.57;100.00
21588;BME280;10956;48.878;13.316;2024-02-04T05:09:16;94825.94;;;5.55;100.00
21588;BME280;10956;48.878;13.316;2024-02-04T05:11:41;94819.25;;;5.59;100.00
21588;BME280;10956;48.878;13.316;2024-02-04T05:14:07;94827.47;;;5.63;100.00
21588;BME280;10956;48.878;13.316;2024-02-04T05:16:33;94830.66;;;5.65;100.00
21588;BME280;10956;48.878;13.316;2024-02-04T05:18:58;94825.78;;;5.68;100.00
21588;BME280;10956;48.878;13.316;2024-02-04T05:21:24;94831.09;;;5.62;100.00
21588;BME280;10956;48.878;13.316;2024-02-04T05:23:49;94822.66;;;5.60;100.00
21588;BME280;10956;48.878;13.316;2024-02-04T05:26:17;94825.72;;;5.57;100.00
21588;BME280;10956;48.878;13.316;2024-02-04T05:28:44;94822.31;;;5.56;100.00
21588;BME280;10956;48.878;13.316;2024-02-04T05:31:09;94819.47;;;5.58;100.00
21588;BME280;10956;48.878;13.316;2024-02-04T05:33:35;94825.13;;;5.55;100.00
21588;BME280;10956;48.878;13.316;2024-02-04T05:36:00;94820.50;;;5.57;100.00
21588;BME280;10956;48.878;13.316;2024-02-04T05:38:25;94824.34;;;5.54;100.00
21588;BME280;10956;48.878;13.316;2024-02-04T05:40:51;94819.09;;;5.54;100.00
21588;BME280;10956;48.878;13.316;2024-02-04T05:43:16;94816.72;;;5.53;100.00
21588;BME280;10956;48.878;13.316;2024-02-04T05:45:41;94819.91;;;5.55;100.00
21588;BME280;10956;48.878;13.316;2024-02-04T05:48:08;94812.94;;;5.67;100.00
21588;BME280;10956;48.878;13.316;2024-02-04T05:50:33;94817.00;;;5.63;100.00
21588;BME280;10956;48.878;13.316;2024-02-04T05:52:59;94822.38;;;5.68;100.00
21588;BME280;10956;48.878;13.316;2024-02-04T05:55:24;94825.84;;;5.62;100.00
21588;BME280;10956;48.878;13.316;2024-02-04T05:57:50;94827.91;;;5.60;100.00
21588;BME280;10956;48.878;13.316;2024-02-04T06:00:15;94817.44;;;5.60;100.00
21588;BME280;10956;48.878;13.316;2024-02-04T06:02:41;94826.16;;;5.54;100.00
21588;BME280;10956;48.878;13.316;2024-02-04T06:05:09;94831.16;;;5.55;100.00
21588;BME280;10956;48.878;13.316;2024-02-04T06:07:34;94825.13;;;5.55;100.00
21588;BME280;10956;48.878;13.316;2024-02-04T06:09:59;94828.34;;;5.57;100.00
21588;BME280;10956;48.878;13.316;2024-02-04T06:12:26;94816.72;;;5.53;100.00
21588;BME280;10956;48.878;13.316;2024-02-04T06:14:51;94811.78;;;5.44;100.00
21588;BME280;10956;48.878;13.316;2024-02-04T06:17:17;94821.66;;;5.42;100.00
21588;BME280;10956;48.878;13.316;2024-02-04T06:19:42;94822.22;;;5.44;100.00
21588;BME280;10956;48.878;13.316;2024-02-04T06:22:08;94823.47;;;5.42;100.00
21588;BME280;10956;48.878;13.316;2024-02-04T06:24:33;94824.06;;;5.44;100.00
21588;BME280;10956;48.878;13.316;2024-02-04T06:26:59;94838.13;;;5.43;100.00
21588;BME280;10956;48.878;13.316;2024-02-04T06:29:24;94828.91;;;5.40;100.00
21588;BME280;10956;48.878;13.316;2024-02-04T06:31:49;94829.50;;;5.42;100.00
21588;BME280;10956;48.878;13.316;2024-02-04T06:34:15;94837.34;;;5.42;100.00
21588;BME280;10956;48.878;13.316;2024-02-04T06:36:43;94821.44;;;5.44;100.00
21588;BME280;10956;48.878;13.316;2024-02-04T06:39:10;94838.94;;;5.43;100.00
21588;BME280;10956;48.878;13.316;2024-02-04T06:41:35;94839.38;;;5.40;100.00
21588;BME280;10956;48.878;13.316;2024-02-04T06:44:02;94845.84;;;5.38;100.00
21588;BME280;10956;48.878;13.316;2024-02-04T06:46:28;94835.75;;;5.41;100.00
21588;BME280;10956;48.878;13.316;2024-02-04T06:48:54;94833.72;;;5.43;100.00
21588;BME280;10956;48.878;13.316;2024-02-04T06:51:19;94839.94;;;5.42;100.00
21588;BME280;10956;48.878;13.316;2024-02-04T06:53:46;94834.94;;;5.41;100.00
21588;BME280;10956;48.878;13.316;2024-02-04T06:56:11;94839.81;;;5.37;100.00
21588;BME280;10956;48.878;13.316;2024-02-04T06:58:37;94832.91;;;5.43;100.00
21588;BME280;10956;48.878;13.316;2024-02-04T07:01:03;94834.44;;;5.50;100.00
21588;BME280;10956;48.878;13.316;2024-02-04T07:03:29;94831.97;;;5.56;100.00
21588;BME280;10956;48.878;13.316;2024-02-04T07:05:55;94824.78;;;5.51;100.00
21588;BME280;10956;48.878;13.316;2024-02-04T07:08:20;94825.00;;;5.49;100.00
21588;BME280;10956;48.878;13.316;2024-02-04T07:10:46;94830.44;;;5.48;100.00
21588;BME280;10956;48.878;13.316;2024-02-04T07:13:11;94819.97;;;5.48;100.00
21588;BME280;10956;48.878;13.316;2024-02-04T07:15:37;94830.38;;;5.55;100.00
21588;BME280;10956;48.878;13.316;2024-02-04T07:18:04;94832.41;;;5.53;100.00
21588;BME280;10956;48.878;13.316;2024-02-04T07:20:29;94832.41;;;5.53;100.00
21588;BME280;10956;48.878;13.316;2024-02-04T07:22:55;94825.56;;;5.51;100.00
21588;BME280;10956;48.878;13.316;2024-02-04T07:25:20;94824.41;;;5.47;100.00
21588;BME280;10956;48.878;13.316;2024-02-04T07:27:46;94833.63;;;5.50;100.00
21588;BME280;10956;48.878;13.316;2024-02-04T07:30:11;94832.84;;;5.49;100.00
21588;BME280;10956;48.878;13.316;2024-02-04T07:32:37;94838.72;;;5.45;100.00
21588;BME280;10956;48.878;13.316;2024-02-04T07:35:03;94820.78;;;5.48;100.00
21588;BME280;10956;48.878;13.316;2024-02-04T07:37:28;94817.00;;;5.44;100.00
21588;BME280;10956;48.878;13.316;2024-02-04T07:39:54;94820.34;;;5.51;100.00
21588;BME280;10956;48.878;13.316;2024-02-04T07:42:19;94823.09;;;5.57;100.00
21588;BME280;10956;48.878;13.316;2024-02-04T07:44:44;94830.16;;;5.56;100.00
21588;BME280;10956;48.878;13.316;2024-02-04T07:47:10;94828.78;;;5.54;100.00
21588;BME280;10956;48.878;13.316;2024-02-04T07:49:36;94813.66;;;5.56;100.00
21588;BME280;10956;48.878;13.316;2024-02-04T07:52:01;94813.88;;;5.54;100.00
21588;BME280;10956;48.878;13.316;2024-02-04T07:54:27;94810.75;;;5.64;100.00
21588;BME280;10956;48.878;13.316;2024-02-04T07:56:52;94805.09;;;5.67;100.00
21588;BME280;10956;48.878;13.316;2024-02-04T07:59:17;94806.09;;;5.66;100.00
21588;BME280;10956;48.878;13.316;2024-02-04T08:01:43;94827.03;;;5.66;100.00
21588;BME280;10956;48.878;13.316;2024-02-04T08:04:08;94823.03;;;5.63;100.00
21588;BME280;10956;48.878;13.316;2024-02-04T08:06:36;94831.66;;;5.64;100.00
21588;BME280;10956;48.878;13.316;2024-02-04T08:09:03;94824.69;;;5.58;100.00
21588;BME280;10956;48.878;13.316;2024-02-04T08:11:29;94813.66;;;5.56;100.00
21588;BME280;10956;48.878;13.316;2024-02-04T08:13:54;94821.28;;;5.57;100.00
21588;BME280;10956;48.878;13.316;2024-02-04T08:16:20;94820.63;;;5.62;100.00
21588;BME280;10956;48.878;13.316;2024-02-04T08:18:46;94806.63;;;5.56;100.00
21588;BME280;10956;48.878;13.316;2024-02-04T08:21:11;94812.22;;;5.60;100.00
21588;BME280;10956;48.878;13.316;2024-02-04T08:23:37;94809.72;;;5.65;100.00
21588;BME280;10956;48.878;13.316;2024-02-04T08:26:04;94797.69;;;5.64;100.00
21588;BME280;10956;48.878;13.316;2024-02-04T08:28:30;94809.22;;;5.74;100.00
21588;BME280;10956;48.878;13.316;2024-02-04T08:30:55;94805.22;;;5.72;100.00
21588;BME280;10956;48.878;13.316;2024-02-04T08:33:21;94813.19;;;5.77;100.00
21588;BME280;10956;48.878;13.316;2024-02-04T08:35:48;94824.53;;;5.71;100.00
21588;BME280;10956;48.878;13.316;2024-02-04T08:38:13;94833.19;;;5.71;100.00
21588;BME280;10956;48.878;13.316;2024-02-04T08:40:38;94827.31;;;5.76;100.00
21588;BME280;10956;48.878;13.316;2024-02-04T08:43:04;94819.22;;;5.77;100.00
21588;BME280;10956;48.878;13.316;2024-02-04T08:45:29;94814.53;;;5.68;100.00
21588;BME280;10956;48.878;13.316;2024-02-04T08:47:55;94816.13;;;5.69;100.00
21588;BME280;10956;48.878;13.316;2024-02-04T08:50:20;94806.97;;;5.60;100.00
21588;BME280;10956;48.878;13.316;2024-02-04T08:52:45;94818.72;;;5.69;100.00
21588;BME280;10956;48.878;13.316;2024-02-04T08:55:11;94810.81;;;5.75;100.00
21588;BME280;10956;48.878;13.316;2024-02-04T08:57:36;94813.91;;;5.84;100.00
21588;BME280;10956;48.878;13.316;2024-02-04T09:00:02;94808.91;;;5.82;100.00
21588;BME280;10956;48.878;13.316;2024-02-04T09:02:27;94812.03;;;5.91;100.00
21588;BME280;10956;48.878;13.316;2024-02-04T09:04:53;94804.59;;;5.88;100.00
21588;BME280;10956;48.878;13.316;2024-02-04T09:07:19;94811.47;;;5.89;100.00
21588;BME280;10956;48.878;13.316;2024-02-04T09:09:45;94806.06;;;6.02;100.00
21588;BME280;10956;48.878;13.316;2024-02-04T09:12:10;94809.00;;;5.94;100.00
21588;BME280;10956;48.878;13.316;2024-02-04T09:14:36;94802.16;;;5.93;100.00
21588;BME280;10956;48.878;13.316;2024-02-04T09:17:03;94800.56;;;5.92;100.00
21588;BME280;10956;48.878;13.316;2024-02-04T09:19:29;94795.47;;;5.97;100.00
21588;BME280;10956;48.878;13.316;2024-02-04T09:21:56;94802.28;;;5.98;100.00
21588;BME280;10956;48.878;13.316;2024-02-04T09:24:21;94809.00;;;5.94;100.00
21588;BME280;10956;48.878;13.316;2024-02-04T09:26:46;94825.03;;;5.98;100.00
21588;BME280;10956;48.878;13.316;2024-02-04T09:29:12;94811.75;;;5.99;100.00
21588;BME280;10956;48.878;13.316;2024-02-04T09:31:37;94816.97;;;5.99;100.00
21588;BME280;10956;48.878;13.316;2024-02-04T09:34:03;94805.47;;;6.00;100.00
21588;BME280;10956;48.878;13.316;2024-02-04T09:36:29;94794.72;;;6.08;100.00
21588;BME280;10956;48.878;13.316;2024-02-04T09:38:54;94791.31;;;6.20;100.00
21588;BME280;10956;48.878;13.316;2024-02-04T09:41:21;94796.63;;;6.01;100.00
21588;BME280;10956;48.878;13.316;2024-02-04T09:43:49;94809.69;;;6.01;100.00
21588;BME280;10956;48.878;13.316;2024-02-04T09:46:16;94809.25;;;6.04;100.00
21588;BME280;10956;48.878;13.316;2024-02-04T09:48:42;94807.03;;;6.20;100.00
21588;BME280;10956;48.878;13.316;2024-02-04T09:51:09;94799.19;;;6.20;100.00
21588;BME280;10956;48.878;13.316;2024-02-04T09:53:35;94802.06;;;6.30;100.00
21588;BME280;10956;48.878;13.316;2024-02-04T09:56:03;94787.94;;;6.31;100.00
21588;BME280;10956;48.878;13.316;2024-02-04T09:58:29;94800.25;;;6.42;100.00
21588;BME280;10956;48.878;13.316;2024-02-04T10:00:54;94815.06;;;6.48;100.00
21588;BME280;10956;48.878;13.316;2024-02-04T10:03:20;94806.78;;;6.63;100.00
21588;BME280;10956;48.878;13.316;2024-02-04T10:05:46;94799.63;;;6.82;100.00
21588;BME280;10956;48.878;13.316;2024-02-04T10:08:13;94804.28;;;6.91;100.00
21588;BME280;10956;48.878;13.316;2024-02-04T10:10:39;94806.56;;;6.88;100.00
21588;BME280;10956;48.878;13.316;2024-02-04T10:13:08;94797.13;;;6.87;100.00
21588;BME280;10956;48.878;13.316;2024-02-04T10:15:34;94801.22;;;6.83;100.00
21588;BME280;10956;48.878;13.316;2024-02-04T10:18:02;94789.25;;;6.75;100.00
21588;BME280;10956;48.878;13.316;2024-02-04T10:20:28;94801.31;;;6.76;100.00
21588;BME280;10956;48.878;13.316;2024-02-04T10:22:53;94788.47;;;6.74;100.00
21588;BME280;10956;48.878;13.316;2024-02-04T10:25:20;94784.00;;;6.75;100.00
21588;BME280;10956;48.878;13.316;2024-02-04T10:27:46;94775.94;;;6.76;100.00
21588;BME280;10956;48.878;13.316;2024-02-04T10:30:12;94769.31;;;6.86;100.00
21588;BME280;10956;48.878;13.316;2024-02-04T10:32:38;94769.44;;;6.91;100.00
21588;BME280;10956;48.878;13.316;2024-02-04T10:35:04;94770.00;;;6.93;100.00
21588;BME280;10956;48.878;13.316;2024-02-04T10:37:29;94773.19;;;6.95;100.00
21588;BME280;10956;48.878;13.316;2024-02-04T10:39:55;94766.34;;;6.94;100.00
21588;BME280;10956;48.878;13.316;2024-02-04T10:42:27;94778.66;;;6.82;100.00
21588;BME280;10956;48.878;13.316;2024-02-04T10:44:57;94776.84;;;6.70;100.00
21588;BME280;10956;48.878;13.316;2024-02-04T10:47:24;94776.59;;;6.60;100.00
21588;BME280;10956;48.878;13.316;2024-02-04T10:49:51;94773.97;;;6.60;100.00
21588;BME280;10956;48.878;13.316;2024-02-04T10:52:18;94782.28;;;6.57;100.00
21588;BME280;10956;48.878;13.316;2024-02-04T10:54:46;94763.41;;;6.55;100.00
21588;BME280;10956;48.878;13.316;2024-02-04T10:57:21;94750.06;;;6.57;100.00
21588;BME280;10956;48.878;13.316;2024-02-04T10:59:52;94738.81;;;6.56;100.00
21588;BME280;10956;48.878;13.316;2024-02-04T11:02:19;94740.16;;;6.47;100.00
21588;BME280;10956;48.878;13.316;2024-02-04T11:04:45;94756.09;;;6.34;100.00
21588;BME280;10956;48.878;13.316;2024-02-04T11:07:13;94757.22;;;6.38;100.00
21588;BME280;10956;48.878;13.316;2024-02-04T11:09:39;94761.31;;;6.34;100.00
21588;BME280;10956;48.878;13.316;2024-02-04T11:12:09;94761.88;;;6.36;100.00
21588;BME280;10956;48.878;13.316;2024-02-04T11:14:39;94756.09;;;6.34;100.00
21588;BME280;10956;48.878;13.316;2024-02-04T11:27:58;94746.88;;;6.55;100.00
21588;BME280;10956;48.878;13.316;2024-02-04T11:30:24;94749.63;;;6.60;100.00
21588;BME280;10956;48.878;13.316;2024-02-04T11:32:49;94740.72;;;6.49;100.00
21588;BME280;10956;48.878;13.316;2024-02-04T11:35:16;94740.16;;;6.47;100.00
21588;BME280;10956;48.878;13.316;2024-02-04T11:37:42;94742.22;;;6.45;100.00
21588;BME280;10956;48.878;13.316;2024-02-04T11:40:14;94748.00;;;6.47;100.00
21588;BME280;10956;48.878;13.316;2024-02-04T11:42:44;94751.19;;;6.37;100.00
21588;BME280;10956;48.878;13.316;2024-02-04T11:45:11;94739.47;;;6.40;100.00
21588;BME280;10956;48.878;13.316;2024-02-04T11:47:38;94731.03;;;6.38;100.00
21588;BME280;10956;48.878;13.316;2024-02-04T11:50:04;94728.66;;;6.36;100.00
21588;BME280;10956;48.878;13.316;2024-02-04T11:52:30;94736.28;;;6.38;100.00
21588;BME280;10956;48.878;13.316;2024-02-04T11:54:56;94737.31;;;6.37;100.00
21588;BME280;10956;48.878;13.316;2024-02-04T11:57:22;94733.91;;;6.48;100.00
21588;BME280;10956;48.878;13.316;2024-02-04T11:59:48;94732.19;;;6.42;100.00
21588;BME280;10956;48.878;13.316;2024-02-04T12:02:17;94727.53;;;6.44;100.00
21588;BME280;10956;48.878;13.316;2024-02-04T12:04:44;94719.34;;;6.52;100.00
21588;BME280;10956;48.878;13.316;2024-02-04T12:07:10;94724.69;;;6.57;100.00
21588;BME280;10956;48.878;13.316;2024-02-04T12:09:36;94720.25;;;6.58;100.00
21588;BME280;10956;48.878;13.316;2024-02-04T12:12:02;94719.56;;;6.62;100.00
21588;BME280;10956;48.878;13.316;2024-02-04T12:14:28;94716.16;;;6.50;100.00
21588;BME280;10956;48.878;13.316;2024-02-04T12:16:56;94709.31;;;6.49;100.00
21588;BME280;10956;48.878;13.316;2024-02-04T12:19:23;94709.19;;;6.44;100.00
21588;BME280;10956;48.878;13.316;2024-02-04T12:21:48;94713.31;;;6.52;100.00
21588;BME280;10956;48.878;13.316;2024-02-04T12:24:14;94708.84;;;6.52;100.00
21588;BME280;10956;48.878;13.316;2024-02-04T12:26:40;94712.63;;;6.56;100.00
21588;BME280;10956;48.878;13.316;2024-02-04T12:29:06;94705.78;;;6.55;100.00
21588;BME280;10956;48.878;13.316;2024-02-04T12:31:31;94704.31;;;6.59;100.00
21588;BME280;10956;48.878;13.316;2024-02-04T12:33:59;94706.13;;;6.59;100.00
21588;BME280;10956;48.878;13.316;2024-02-04T12:36:27;94696.91;;;6.56;100.00
21588;BME280;10956;48.878;13.316;2024-02-04T12:38:58;94695.88;;;6.57;100.00
21588;BME280;10956;48.878;13.316;2024-02-04T12:41:24;94695.66;;;6.59;100.00
21588;BME280;10956;48.878;13.316;2024-02-04T12:43:54;94676.53;;;6.58;100.00
21588;BME280;10956;48.878;13.316;2024-02-04T12:46:20;94674.38;;;6.55;100.00
21588;BME280;10956;48.878;13.316;2024-02-04T12:48:51;94652.84;;;6.53;100.00
21588;BME280;10956;48.878;13.316;2024-02-04T12:51:28;94657.53;;;6.51;100.00
21588;BME280;10956;48.878;13.316;2024-02-04T12:59:10;94657.06;;;6.54;100.00
21588;BME280;10956;48.878;13.316;2024-02-04T13:01:37;94665.47;;;6.56;100.00